sensor_id;sensor_type;location;lat;lon;timestamp;temperature;humidity
12025;DHT22;6073;53.230;10.444;2024-01-07T00:01:27;-1.20;99.90
12025;DHT22;6073;53.230;10.444;2024-01-07T00:03:52;-1.20;99.90
12025;DHT22;6073;53.230;10.444;2024-01-07T00:06:18;-1.20;99.90
12025;DHT22;6073;53.230;10.444;2024-01-07T00:08:43;-1.20;99.90
12025;DHT22;6073;53.230;10.444;2024-01-07T00:11:09;-1.20;99.90
12025;DHT22;6073;53.230;10.444;2024-01-07T00:13:35;-1.20;99.90
12025;DHT22;6073;53.230;10.444;2024-01-07T00:16:01;-1.20;99.90
12025;DHT22;6073;53.230;10.444;2024-01-07T00:18:26;-1.20;99.90
12025;DHT22;6073;53.230;10.444;2024-01-07T00:20:53;-1.20;99.90
12025;DHT22;6073;53.230;10.444;2024-01-07T00:23:18;-1.30;99.90
12025;DHT22;6073;53.230;10.444;2024-01-07T00:25:46;-1.30;99.90
12025;DHT22;6073;53.230;10.444;2024-01-07T00:28:12;-1.30;99.90
12025;DHT22;6073;53.230;10.444;2024-01-07T00:30:37;-1.30;99.90
12025;DHT22;6073;53.230;10.444;2024-01-07T00:33:03;-1.30;99.90
12025;DHT22;6073;53.230;10.444;2024-01-07T00:35:28;-1.40;99.90
12025;DHT22;6073;53.230;10.444;2024-01-07T00:37:54;-1.40;99.90
12025;DHT22;6073;53.230;10.444;2024-01-07T00:40:22;-1.30;99.90
12025;DHT22;6073;53.230;10.444;2024-01-07T00:42:47;-1.40;99.90
12025;DHT22;6073;53.230;10.444;2024-01-07T00:45:13;-1.40;99.90
12025;DHT22;6073;53.230;10.444;2024-01-07T00:47:38;-1.40;99.90
12025;DHT22;6073;53.230;10.444;2024-01-07T00:50:04;-1.50;99.90
12025;DHT22;6073;53.230;10.444;2024-01-07T00:52:30;-1.40;99.90
12025;DHT22;6073;53.230;10.444;2024-01-07T00:54:56;-1.40;99.90
12025;DHT22;6073;53.230;10.444;2024-01-07T00:57:22;-1.40;99.90
12025;DHT22;6073;53.230;10.444;2024-01-07T00:59:47;-1.40;99.90
12025;DHT22;6073;53.230;10.444;2024-01-07T01:02:13;-1.40;99.90
12025;DHT22;6073;53.230;10.444;2024-01-07T01:04:39;-1.30;99.90
12025;DHT22;6073;53.230;10.444;2024-01-07T01:07:05;-1.40;99.90
12025;DHT22;6073;53.230;10.444;2024-01-07T01:09:33;-1.40;99.90
12025;DHT22;6073;53.230;10.444;2024-01-07T01:11:58;-1.40;99.90
12025;DHT22;6073;53.230;10.444;2024-01-07T01:14:24;-1.40;99.90
12025;DHT22;6073;53.230;10.444;2024-01-07T01:16:49;-1.30;99.90
12025;DHT22;6073;53.230;10.444;2024-01-07T01:19:15;-1.40;99.90
12025;DHT22;6073;53.230;10.444;2024-01-07T01:21:40;-1.40;99.90
12025;DHT22;6073;53.230;10.444;2024-01-07T01:24:06;-1.40;99.90
12025;DHT22;6073;53.230;10.444;2024-01-07T01:26:31;-1.40;99.90
12025;DHT22;6073;53.230;10.444;2024-01-07T01:28:57;-1.40;99.90
12025;DHT22;6073;53.230;10.444;2024-01-07T01:31:22;-1.40;99.90
12025;DHT22;6073;53.230;10.444;2024-01-07T01:33:48;-1.50;99.90
12025;DHT22;6073;53.230;10.444;2024-01-07T01:36:14;-1.40;99.90
12025;DHT22;6073;53.230;10.444;2024-01-07T01:38:39;-1.50;99.90
12025;DHT22;6073;53.230;10.444;2024-01-07T01:41:05;-1.50;99.90
12025;DHT22;6073;53.230;10.444;2024-01-07T01:43:31;-1.50;99.90
12025;DHT22;6073;53.230;10.444;2024-01-07T01:45:56;-1.60;99.90
12025;DHT22;6073;53.230;10.444;2024-01-07T01:48:26;-1.60;99.90
12025;DHT22;6073;53.230;10.444;2024-01-07T01:50:53;-1.60;99.90
12025;DHT22;6073;53.230;10.444;2024-01-07T01:53:19;-1.70;99.90
12025;DHT22;6073;53.230;10.444;2024-01-07T01:55:45;-1.70;99.90
12025;DHT22;6073;53.230;10.444;2024-01-07T01:58:13;-1.70;99.90
12025;DHT22;6073;53.230;10.444;2024-01-07T02:00:39;-1.70;99.90
12025;DHT22;6073;53.230;10.444;2024-01-07T02:03:05;-1.70;99.90
12025;DHT22;6073;53.230;10.444;2024-01-07T02:05:31;-1.80;99.90
12025;DHT22;6073;53.230;10.444;2024-01-07T02:07:57;-1.80;99.90
12025;DHT22;6073;53.230;10.444;2024-01-07T02:10:23;-1.80;99.90
12025;DHT22;6073;53.230;10.444;2024-01-07T02:12:48;-1.80;99.90
12025;DHT22;6073;53.230;10.444;2024-01-07T02:15:15;-1.70;99.90
12025;DHT22;6073;53.230;10.444;2024-01-07T02:17:41;-1.80;99.90
12025;DHT22;6073;53.230;10.444;2024-01-07T02:20:06;-1.80;99.90
12025;DHT22;6073;53.230;10.444;2024-01-07T02:22:32;-1.80;99.90
12025;DHT22;6073;53.230;10.444;2024-01-07T02:24:58;-1.90;99.90
12025;DHT22;6073;53.230;10.444;2024-01-07T02:27:23;-1.90;99.90
12025;DHT22;6073;53.230;10.444;2024-01-07T02:29:49;-1.90;99.90
12025;DHT22;6073;53.230;10.444;2024-01-07T02:32:14;-1.90;99.90
12025;DHT22;6073;53.230;10.444;2024-01-07T02:34:40;-2.00;99.90
12025;DHT22;6073;53.230;10.444;2024-01-07T02:37:05;-2.00;99.90
12025;DHT22;6073;53.230;10.444;2024-01-07T02:39:31;-1.90;99.90
12025;DHT22;6073;53.230;10.444;2024-01-07T02:41:56;-2.00;99.90
12025;DHT22;6073;53.230;10.444;2024-01-07T02:44:22;-2.10;99.90
12025;DHT22;6073;53.230;10.444;2024-01-07T02:46:47;-2.10;99.90
12025;DHT22;6073;53.230;10.444;2024-01-07T02:49:13;-2.00;99.90
12025;DHT22;6073;53.230;10.444;2024-01-07T02:51:38;-2.00;99.90
12025;DHT22;6073;53.230;10.444;2024-01-07T02:54:04;-2.00;99.90
12025;DHT22;6073;53.230;10.444;2024-01-07T02:56:29;-2.00;99.90
12025;DHT22;6073;53.230;10.444;2024-01-07T02:58:55;-2.00;99.90
12025;DHT22;6073;53.230;10.444;2024-01-07T03:01:24;-2.00;99.90
12025;DHT22;6073;53.230;10.444;2024-01-07T03:03:50;-2.00;99.90
12025;DHT22;6073;53.230;10.444;2024-01-07T03:06:15;-2.10;99.90
12025;DHT22;6073;53.230;10.444;2024-01-07T03:08:42;-2.20;99.90
12025;DHT22;6073;53.230;10.444;2024-01-07T03:11:08;-2.30;99.90
12025;DHT22;6073;53.230;10.444;2024-01-07T03:13:33;-2.30;99.90
12025;DHT22;6073;53.230;10.444;2024-01-07T03:15:59;-2.40;99.90
12025;DHT22;6073;53.230;10.444;2024-01-07T03:18:24;-2.40;99.90
12025;DHT22;6073;53.230;10.444;2024-01-07T03:20:50;-2.40;99.90
12025;DHT22;6073;53.230;10.444;2024-01-07T03:23:15;-2.50;99.90
12025;DHT22;6073;53.230;10.444;2024-01-07T03:25:41;-2.50;99.90
12025;DHT22;6073;53.230;10.444;2024-01-07T03:28:06;-2.50;99.90
12025;DHT22;6073;53.230;10.444;2024-01-07T03:30:32;-2.50;99.90
12025;DHT22;6073;53.230;10.444;2024-01-07T03:32:57;-2.60;99.90
12025;DHT22;6073;53.230;10.444;2024-01-07T03:35:23;-2.70;99.90
12025;DHT22;6073;53.230;10.444;2024-01-07T03:37:49;-2.60;99.90
12025;DHT22;6073;53.230;10.444;2024-01-07T03:40:15;-2.60;99.90
12025;DHT22;6073;53.230;10.444;2024-01-07T03:42:41;-2.60;99.90
12025;DHT22;6073;53.230;10.444;2024-01-07T03:45:06;-2.70;99.90
12025;DHT22;6073;53.230;10.444;2024-01-07T03:47:32;-2.70;99.90
12025;DHT22;6073;53.230;10.444;2024-01-07T03:49:57;-2.60;99.90
12025;DHT22;6073;53.230;10.444;2024-01-07T03:52:23;-2.60;99.90
12025;DHT22;6073;53.230;10.444;2024-01-07T03:54:49;-2.50;99.90
12025;DHT22;6073;53.230;10.444;2024-01-07T03:57:14;-2.50;99.90
12025;DHT22;6073;53.230;10.444;2024-01-07T03:59:40;-2.50;99.90
12025;DHT22;6073;53.230;10.444;2024-01-07T04:02:06;-2.50;99.90
12025;DHT22;6073;53.230;10.444;2024-01-07T04:04:31;-2.50;99.90
12025;DHT22;6073;53.230;10.444;2024-01-07T04:06:57;-2.50;99.90
12025;DHT22;6073;53.230;10.444;2024-01-07T04:09:23;-2.50;99.90
12025;DHT22;6073;53.230;10.444;2024-01-07T04:11:48;-2.50;99.90
12025;DHT22;6073;53.230;10.444;2024-01-07T04:14:15;-2.50;99.90
12025;DHT22;6073;53.230;10.444;2024-01-07T04:16:40;-2.50;99.90
12025;DHT22;6073;53.230;10.444;2024-01-07T04:19:06;-2.50;99.90
12025;DHT22;6073;53.230;10.444;2024-01-07T04:21:31;-2.40;99.90
12025;DHT22;6073;53.230;10.444;2024-01-07T04:23:57;-2.40;99.90
12025;DHT22;6073;53.230;10.444;2024-01-07T04:26:23;-2.40;99.90
12025;DHT22;6073;53.230;10.444;2024-01-07T04:28:48;-2.40;99.90
12025;DHT22;6073;53.230;10.444;2024-01-07T04:31:14;-2.30;99.90
12025;DHT22;6073;53.230;10.444;2024-01-07T04:33:39;-2.30;99.90
12025;DHT22;6073;53.230;10.444;2024-01-07T04:36:05;-2.20;99.90
12025;DHT22;6073;53.230;10.444;2024-01-07T04:38:31;-2.20;99.90
12025;DHT22;6073;53.230;10.444;2024-01-07T04:40:56;-2.20;99.90
12025;DHT22;6073;53.230;10.444;2024-01-07T04:43:22;-2.10;99.90
12025;DHT22;6073;53.230;10.444;2024-01-07T04:45:47;-2.10;99.90
12025;DHT22;6073;53.230;10.444;2024-01-07T04:48:13;-2.10;99.90
12025;DHT22;6073;53.230;10.444;2024-01-07T04:50:40;-2.10;99.90
12025;DHT22;6073;53.230;10.444;2024-01-07T04:53:07;-2.00;99.90
12025;DHT22;6073;53.230;10.444;2024-01-07T04:55:33;-2.00;99.90
12025;DHT22;6073;53.230;10.444;2024-01-07T04:57:58;-2.00;99.90
12025;DHT22;6073;53.230;10.444;2024-01-07T05:00:24;-2.10;99.90
12025;DHT22;6073;53.230;10.444;2024-01-07T05:02:49;-2.10;99.90
12025;DHT22;6073;53.230;10.444;2024-01-07T05:05:15;-2.00;99.90
12025;DHT22;6073;53.230;10.444;2024-01-07T05:07:40;-2.00;99.90
12025;DHT22;6073;53.230;10.444;2024-01-07T05:10:06;-2.00;99.90
12025;DHT22;6073;53.230;10.444;2024-01-07T05:12:32;-2.00;99.90
12025;DHT22;6073;53.230;10.444;2024-01-07T05:14:58;-2.00;99.90
12025;DHT22;6073;53.230;10.444;2024-01-07T05:17:23;-1.90;99.90
12025;DHT22;6073;53.230;10.444;2024-01-07T05:19:49;-2.00;99.90
12025;DHT22;6073;53.230;10.444;2024-01-07T05:22:14;-2.00;99.90
12025;DHT22;6073;53.230;10.444;2024-01-07T05:24:40;-2.00;99.90
12025;DHT22;6073;53.230;10.444;2024-01-07T05:27:05;-2.00;99.90
12025;DHT22;6073;53.230;10.444;2024-01-07T05:29:31;-2.00;99.90
12025;DHT22;6073;53.230;10.444;2024-01-07T05:31:59;-2.00;99.90
12025;DHT22;6073;53.230;10.444;2024-01-07T05:34:26;-1.90;99.90
12025;DHT22;6073;53.230;10.444;2024-01-07T05:36:52;-1.90;99.90
12025;DHT22;6073;53.230;10.444;2024-01-07T05:39:17;-1.90;99.90
12025;DHT22;6073;53.230;10.444;2024-01-07T05:41:43;-1.90;99.90
12025;DHT22;6073;53.230;10.444;2024-01-07T05:44:09;-1.90;99.90
12025;DHT22;6073;53.230;10.444;2024-01-07T05:46:37;-1.80;99.90
12025;DHT22;6073;53.230;10.444;2024-01-07T05:49:03;-1.80;99.90
12025;DHT22;6073;53.230;10.444;2024-01-07T05:51:28;-1.80;99.90
12025;DHT22;6073;53.230;10.444;2024-01-07T05:53:54;-1.80;99.90
12025;DHT22;6073;53.230;10.444;2024-01-07T05:56:19;-1.80;99.90
12025;DHT22;6073;53.230;10.444;2024-01-07T05:58:45;-1.80;99.90
12025;DHT22;6073;53.230;10.444;2024-01-07T06:01:11;-1.80;99.90
12025;DHT22;6073;53.230;10.444;2024-01-07T06:03:43;-1.70;99.90
12025;DHT22;6073;53.230;10.444;2024-01-07T06:06:09;-1.70;99.90
12025;DHT22;6073;53.230;10.444;2024-01-07T06:08:34;-1.70;99.90
12025;DHT22;6073;53.230;10.444;2024-01-07T06:11:00;-1.70;99.90
12025;DHT22;6073;53.230;10.444;2024-01-07T06:13:25;-1.70;99.90
12025;DHT22;6073;53.230;10.444;2024-01-07T06:15:52;-1.70;99.90
12025;DHT22;6073;53.230;10.444;2024-01-07T06:18:17;-1.60;99.90
12025;DHT22;6073;53.230;10.444;2024-01-07T06:20:43;-1.70;99.90
12025;DHT22;6073;53.230;10.444;2024-01-07T06:23:08;-1.60;99.90
12025;DHT22;6073;53.230;10.444;2024-01-07T06:25:34;-1.60;99.90
12025;DHT22;6073;53.230;10.444;2024-01-07T06:27:59;-1.70;99.90
12025;DHT22;6073;53.230;10.444;2024-01-07T06:30:25;-1.70;99.90
12025;DHT22;6073;53.230;10.444;2024-01-07T06:32:50;-1.60;99.90
12025;DHT22;6073;53.230;10.444;2024-01-07T06:35:16;-1.60;99.90
12025;DHT22;6073;53.230;10.444;2024-01-07T06:37:42;-1.60;99.90
12025;DHT22;6073;53.230;10.444;2024-01-07T06:40:08;-1.60;99.90
12025;DHT22;6073;53.230;10.444;2024-01-07T06:42:34;-1.50;99.90
12025;DHT22;6073;53.230;10.444;2024-01-07T06:44:59;-1.50;99.90
12025;DHT22;6073;53.230;10.444;2024-01-07T06:47:25;-1.50;99.90
12025;DHT22;6073;53.230;10.444;2024-01-07T06:49:50;-1.50;99.90
12025;DHT22;6073;53.230;10.444;2024-01-07T06:52:16;-1.50;99.90
12025;DHT22;6073;53.230;10.444;2024-01-07T06:54:41;-1.60;99.90
12025;DHT22;6073;53.230;10.444;2024-01-07T06:57:07;-1.50;99.90
12025;DHT22;6073;53.230;10.444;2024-01-07T06:59:32;-1.50;99.90
12025;DHT22;6073;53.230;10.444;2024-01-07T07:01:58;-1.50;99.90
12025;DHT22;6073;53.230;10.444;2024-01-07T07:04:23;-1.50;99.90
12025;DHT22;6073;53.230;10.444;2024-01-07T07:06:49;-1.50;99.90
12025;DHT22;6073;53.230;10.444;2024-01-07T07:09:14;-1.50;99.90
12025;DHT22;6073;53.230;10.444;2024-01-07T07:11:40;-1.50;99.90
12025;DHT22;6073;53.230;10.444;2024-01-07T07:14:06;-1.50;99.90
12025;DHT22;6073;53.230;10.444;2024-01-07T07:16:31;-1.50;99.90
12025;DHT22;6073;53.230;10.444;2024-01-07T07:18:57;-1.50;99.90
12025;DHT22;6073;53.230;10.444;2024-01-07T07:21:22;-1.40;99.90
12025;DHT22;6073;53.230;10.444;2024-01-07T07:23:48;-1.50;99.90
12025;DHT22;6073;53.230;10.444;2024-01-07T07:26:14;-1.40;99.90
12025;DHT22;6073;53.230;10.444;2024-01-07T07:28:39;-1.40;99.90
12025;DHT22;6073;53.230;10.444;2024-01-07T07:31:05;-1.40;99.90
12025;DHT22;6073;53.230;10.444;2024-01-07T07:33:30;-1.40;99.90
12025;DHT22;6073;53.230;10.444;2024-01-07T07:35:56;-1.40;99.90
12025;DHT22;6073;53.230;10.444;2024-01-07T07:38:21;-1.40;99.90
12025;DHT22;6073;53.230;10.444;2024-01-07T07:40:47;-1.30;99.90
12025;DHT22;6073;53.230;10.444;2024-01-07T07:43:18;-1.30;99.90
12025;DHT22;6073;53.230;10.444;2024-01-07T07:45:44;-1.30;99.90
12025;DHT22;6073;53.230;10.444;2024-01-07T07:48:10;-1.30;99.90
12025;DHT22;6073;53.230;10.444;2024-01-07T07:50:35;-1.30;99.90
12025;DHT22;6073;53.230;10.444;2024-01-07T07:53:01;-1.30;99.90
12025;DHT22;6073;53.230;10.444;2024-01-07T07:55:26;-1.30;99.90
12025;DHT22;6073;53.230;10.444;2024-01-07T07:57:53;-1.30;99.90
12025;DHT22;6073;53.230;10.444;2024-01-07T08:00:19;-1.30;99.90
12025;DHT22;6073;53.230;10.444;2024-01-07T08:02:45;-1.30;99.90
12025;DHT22;6073;53.230;10.444;2024-01-07T08:05:10;-1.20;99.90
12025;DHT22;6073;53.230;10.444;2024-01-07T08:07:36;-1.20;99.90
12025;DHT22;6073;53.230;10.444;2024-01-07T08:10:01;-1.20;99.90
12025;DHT22;6073;53.230;10.444;2024-01-07T08:12:28;-1.10;99.90
12025;DHT22;6073;53.230;10.444;2024-01-07T08:14:53;-1.10;99.90
12025;DHT22;6073;53.230;10.444;2024-01-07T08:17:19;-1.10;99.90
12025;DHT22;6073;53.230;10.444;2024-01-07T08:19:44;-1.10;99.90
12025;DHT22;6073;53.230;10.444;2024-01-07T08:22:10;-1.10;99.90
12025;DHT22;6073;53.230;10.444;2024-01-07T08:24:35;-1.20;99.90
12025;DHT22;6073;53.230;10.444;2024-01-07T08:27:02;-1.10;99.90
12025;DHT22;6073;53.230;10.444;2024-01-07T08:29:28;-1.10;99.90
12025;DHT22;6073;53.230;10.444;2024-01-07T08:31:54;-1.10;99.90
12025;DHT22;6073;53.230;10.444;2024-01-07T08:34:19;-1.10;99.90
12025;DHT22;6073;53.230;10.444;2024-01-07T08:36:45;-1.00;99.90
12025;DHT22;6073;53.230;10.444;2024-01-07T08:39:13;-1.00;99.90
12025;DHT22;6073;53.230;10.444;2024-01-07T08:41:39;-1.00;99.90
12025;DHT22;6073;53.230;10.444;2024-01-07T08:44:05;-0.90;99.90
12025;DHT22;6073;53.230;10.444;2024-01-07T08:46:31;-0.90;99.90
12025;DHT22;6073;53.230;10.444;2024-01-07T08:48:57;-0.80;99.90
12025;DHT22;6073;53.230;10.444;2024-01-07T08:51:22;-0.80;99.90
12025;DHT22;6073;53.230;10.444;2024-01-07T08:53:48;-0.80;99.90
12025;DHT22;6073;53.230;10.444;2024-01-07T08:56:14;-0.80;99.90
12025;DHT22;6073;53.230;10.444;2024-01-07T08:58:41;-0.70;99.90
12025;DHT22;6073;53.230;10.444;2024-01-07T09:01:07;-0.70;99.90
12025;DHT22;6073;53.230;10.444;2024-01-07T09:03:33;-0.70;99.90
12025;DHT22;6073;53.230;10.444;2024-01-07T09:05:59;-0.60;99.90
12025;DHT22;6073;53.230;10.444;2024-01-07T09:08:24;-0.70;99.90
12025;DHT22;6073;53.230;10.444;2024-01-07T09:10:50;-0.60;99.90
12025;DHT22;6073;53.230;10.444;2024-01-07T09:13:16;-0.60;99.90
12025;DHT22;6073;53.230;10.444;2024-01-07T09:15:41;-0.60;99.90
12025;DHT22;6073;53.230;10.444;2024-01-07T09:18:07;-0.70;99.90
12025;DHT22;6073;53.230;10.444;2024-01-07T09:20:32;-0.70;99.90
12025;DHT22;6073;53.230;10.444;2024-01-07T09:22:59;-0.60;99.90
12025;DHT22;6073;53.230;10.444;2024-01-07T09:25:24;-0.50;99.90
12025;DHT22;6073;53.230;10.444;2024-01-07T09:27:51;-0.60;99.90
12025;DHT22;6073;53.230;10.444;2024-01-07T09:30:17;-0.50;99.90
12025;DHT22;6073;53.230;10.444;2024-01-07T09:32:43;-0.50;99.90
12025;DHT22;6073;53.230;10.444;2024-01-07T09:35:09;-0.60;99.90
12025;DHT22;6073;53.230;10.444;2024-01-07T09:37:35;-0.50;99.90
12025;DHT22;6073;53.230;10.444;2024-01-07T09:40:03;-0.60;99.90
12025;DHT22;6073;53.230;10.444;2024-01-07T09:42:32;-0.60;99.90
12025;DHT22;6073;53.230;10.444;2024-01-07T09:45:01;-0.60;99.90
12025;DHT22;6073;53.230;10.444;2024-01-07T09:47:27;-0.60;99.90
12025;DHT22;6073;53.230;10.444;2024-01-07T09:49:53;-0.50;99.90
12025;DHT22;6073;53.230;10.444;2024-01-07T09:52:20;-0.50;99.90
12025;DHT22;6073;53.230;10.444;2024-01-07T09:54:51;-0.50;99.90
12025;DHT22;6073;53.230;10.444;2024-01-07T09:57:17;-0.60;99.90
12025;DHT22;6073;53.230;10.444;2024-01-07T09:59:42;-0.60;99.90
12025;DHT22;6073;53.230;10.444;2024-01-07T10:02:08;-0.60;99.90
12025;DHT22;6073;53.230;10.444;2024-01-07T10:04:36;-0.50;99.90
12025;DHT22;6073;53.230;10.444;2024-01-07T10:07:01;-0.60;99.90
12025;DHT22;6073;53.230;10.444;2024-01-07T10:09:32;-0.40;99.90
12025;DHT22;6073;53.230;10.444;2024-01-07T10:11:58;-0.30;99.90
12025;DHT22;6073;53.230;10.444;2024-01-07T10:14:24;-0.40;99.90
12025;DHT22;6073;53.230;10.444;2024-01-07T10:16:52;-0.50;99.90
12025;DHT22;6073;53.230;10.444;2024-01-07T10:19:22;-0.50;99.90
12025;DHT22;6073;53.230;10.444;2024-01-07T10:22:04;-0.50;99.90
12025;DHT22;6073;53.230;10.444;2024-01-07T10:24:37;-0.60;99.90
12025;DHT22;6073;53.230;10.444;2024-01-07T10:27:04;-0.60;99.90
12025;DHT22;6073;53.230;10.444;2024-01-07T10:29:30;-0.50;99.90
12025;DHT22;6073;53.230;10.444;2024-01-07T10:31:57;-0.50;99.90
12025;DHT22;6073;53.230;10.444;2024-01-07T10:34:24;-0.60;99.90
12025;DHT22;6073;53.230;10.444;2024-01-07T10:36:52;-0.50;99.90
12025;DHT22;6073;53.230;10.444;2024-01-07T10:39:19;-0.50;99.90
12025;DHT22;6073;53.230;10.444;2024-01-07T10:41:46;-0.40;99.90
12025;DHT22;6073;53.230;10.444;2024-01-07T10:44:12;-0.40;99.90
12025;DHT22;6073;53.230;10.444;2024-01-07T10:46:39;-0.40;99.90
12025;DHT22;6073;53.230;10.444;2024-01-07T10:49:11;-0.40;99.90
12025;DHT22;6073;53.230;10.444;2024-01-07T10:51:39;-0.50;99.90
12025;DHT22;6073;53.230;10.444;2024-01-07T10:54:06;-0.40;99.90
12025;DHT22;6073;53.230;10.444;2024-01-07T10:56:39;-0.40;99.90
12025;DHT22;6073;53.230;10.444;2024-01-07T10:59:06;-0.50;99.90
12025;DHT22;6073;53.230;10.444;2024-01-07T11:01:32;-0.60;99.90
12025;DHT22;6073;53.230;10.444;2024-01-07T11:04:13;-0.60;99.90
12025;DHT22;6073;53.230;10.444;2024-01-07T11:06:52;-0.50;99.90
12025;DHT22;6073;53.230;10.444;2024-01-07T11:12:05;-0.50;99.90
12025;DHT22;6073;53.230;10.444;2024-01-07T11:14:38;-0.50;99.90
12025;DHT22;6073;53.230;10.444;2024-01-07T11:17:08;-0.50;99.90
12025;DHT22;6073;53.230;10.444;2024-01-07T11:19:38;-0.50;99.90
12025;DHT22;6073;53.230;10.444;2024-01-07T11:24:50;-0.50;99.90
12025;DHT22;6073;53.230;10.444;2024-01-07T11:27:16;-0.50;99.90
12025;DHT22;6073;53.230;10.444;2024-01-07T11:29:41;-0.30;99.90
12025;DHT22;6073;53.230;10.444;2024-01-07T11:32:07;-0.40;99.90
12025;DHT22;6073;53.230;10.444;2024-01-07T11:34:43;-0.30;99.90
12025;DHT22;6073;53.230;10.444;2024-01-07T11:37:12;-0.30;99.90
12025;DHT22;6073;53.230;10.444;2024-01-07T11:39:42;-0.30;99.90
12025;DHT22;6073;53.230;10.444;2024-01-07T11:42:07;-0.30;99.90
12025;DHT22;6073;53.230;10.444;2024-01-07T11:44:34;-0.30;99.90
12025;DHT22;6073;53.230;10.444;2024-01-07T11:47:01;-0.30;99.90
12025;DHT22;6073;53.230;10.444;2024-01-07T11:49:26;-0.30;99.90
12025;DHT22;6073;53.230;10.444;2024-01-07T11:51:52;-0.30;99.90
12025;DHT22;6073;53.230;10.444;2024-01-07T11:54:17;-0.20;99.90
12025;DHT22;6073;53.230;10.444;2024-01-07T11:56:44;-0.20;99.90
12025;DHT22;6073;53.230;10.444;2024-01-07T11:59:09;-0.30;99.90
12025;DHT22;6073;53.230;10.444;2024-01-07T12:01:35;-0.30;99.90
12025;DHT22;6073;53.230;10.444;2024-01-07T12:04:00;-0.30;99.90
12025;DHT22;6073;53.230;10.444;2024-01-07T12:06:26;-0.30;99.90
12025;DHT22;6073;53.230;10.444;2024-01-07T12:08:52;-0.30;99.90
12025;DHT22;6073;53.230;10.444;2024-01-07T12:11:18;-0.30;99.90
12025;DHT22;6073;53.230;10.444;2024-01-07T12:13:44;-0.30;99.90
12025;DHT22;6073;53.230;10.444;2024-01-07T12:16:10;-0.30;99.90
12025;DHT22;6073;53.230;10.444;2024-01-07T12:18:37;-0.40;99.90
12025;DHT22;6073;53.230;10.444;2024-01-07T12:21:03;-0.30;99.90
12025;DHT22;6073;53.230;10.444;2024-01-07T12:23:34;-0.40;99.90
12025;DHT22;6073;53.230;10.444;2024-01-07T12:26:07;-0.40;99.90
12025;DHT22;6073;53.230;10.444;2024-01-07T12:28:34;-0.40;99.90
12025;DHT22;6073;53.230;10.444;2024-01-07T12:31:00;-0.40;99.90
12025;DHT22;6073;53.230;10.444;2024-01-07T12:33:27;-0.40;99.90
12025;DHT22;6073;53.230;10.444;2024-01-07T12:35:54;-0.30;99.90
12025;DHT22;6073;53.230;10.444;2024-01-07T12:38:27;-0.40;99.90
12025;DHT22;6073;53.230;10.444;2024-01-07T12:40:56;-0.40;99.90
12025;DHT22;6073;53.230;10.444;2024-01-07T12:43:22;-0.30;99.90
12025;DHT22;6073;53.230;10.444;2024-01-07T12:45:48;-0.30;99.90
12025;DHT22;6073;53.230;10.444;2024-01-07T12:48:14;-0.30;99.90
12025;DHT22;6073;53.230;10.444;2024-01-07T12:50:39;-0.40;99.90
12025;DHT22;6073;53.230;10.444;2024-01-07T12:53:05;-0.40;99.90
12025;DHT22;6073;53.230;10.444;2024-01-07T12:55:31;-0.40;99.90
12025;DHT22;6073;53.230;10.444;2024-01-07T12:57:56;-0.40;99.90
12025;DHT22;6073;53.230;10.444;2024-01-07T13:00:24;-0.40;99.90
12025;DHT22;6073;53.230;10.444;2024-01-07T13:02:50;-0.30;99.90
12025;DHT22;6073;53.230;10.444;2024-01-07T13:05:16;-0.10;99.90
12025;DHT22;6073;53.230;10.444;2024-01-07T13:07:43;0.20;99.90
12025;DHT22;6073;53.230;10.444;2024-01-07T13:10:08;0.30;99.90
12025;DHT22;6073;53.230;10.444;2024-01-07T13:12:35;0.40;99.90
12025;DHT22;6073;53.230;10.444;2024-01-07T13:15:01;0.40;99.90
12025;DHT22;6073;53.230;10.444;2024-01-07T13:17:27;0.30;99.90
12025;DHT22;6073;53.230;10.444;2024-01-07T13:19:55;0.30;99.90
12025;DHT22;6073;53.230;10.444;2024-01-07T13:22:20;0.20;99.90
12025;DHT22;6073;53.230;10.444;2024-01-07T13:24:46;0.00;99.90
12025;DHT22;6073;53.230;10.444;2024-01-07T13:27:12;0.00;99.90
12025;DHT22;6073;53.230;10.444;2024-01-07T13:29:38;0.00;99.90
12025;DHT22;6073;53.230;10.444;2024-01-07T13:32:04;-0.10;99.90
12025;DHT22;6073;53.230;10.444;2024-01-07T13:34:29;-0.10;99.90
12025;DHT22;6073;53.230;10.444;2024-01-07T13:36:55;-0.10;99.90
12025;DHT22;6073;53.230;10.444;2024-01-07T13:39:21;-0.20;99.90
12025;DHT22;6073;53.230;10.444;2024-01-07T13:41:47;-0.20;99.90
12025;DHT22;6073;53.230;10.444;2024-01-07T13:44:13;-0.10;99.90
12025;DHT22;6073;53.230;10.444;2024-01-07T13:46:46;-0.20;99.90
12025;DHT22;6073;53.230;10.444;2024-01-07T13:49:15;-0.20;99.90
12025;DHT22;6073;53.230;10.444;2024-01-07T13:51:41;-0.20;99.90
12025;DHT22;6073;53.230;10.444;2024-01-07T13:54:07;-0.30;99.90
12025;DHT22;6073;53.230;10.444;2024-01-07T13:56:34;-0.20;99.90
12025;DHT22;6073;53.230;10.444;2024-01-07T13:59:02;-0.20;99.90
12025;DHT22;6073;53.230;10.444;2024-01-07T14:01:31;-0.30;99.90
12025;DHT22;6073;53.230;10.444;2024-01-07T14:03:56;-0.20;99.90
12025;DHT22;6073;53.230;10.444;2024-01-07T14:06:22;-0.30;99.90
12025;DHT22;6073;53.230;10.444;2024-01-07T14:08:47;-0.40;99.90
12025;DHT22;6073;53.230;10.444;2024-01-07T14:11:13;-0.40;99.90
12025;DHT22;6073;53.230;10.444;2024-01-07T14:13:38;-0.40;99.90
12025;DHT22;6073;53.230;10.444;2024-01-07T14:16:04;-0.50;99.90
12025;DHT22;6073;53.230;10.444;2024-01-07T14:18:30;-0.60;99.90
12025;DHT22;6073;53.230;10.444;2024-01-07T14:20:56;-0.60;99.90
12025;DHT22;6073;53.230;10.444;2024-01-07T14:23:21;-0.60;99.90
12025;DHT22;6073;53.230;10.444;2024-01-07T14:25:47;-0.70;99.90
12025;DHT22;6073;53.230;10.444;2024-01-07T14:28:12;-0.80;99.90
12025;DHT22;6073;53.230;10.444;2024-01-07T14:30:38;-0.90;99.90
12025;DHT22;6073;53.230;10.444;2024-01-07T14:33:04;-0.90;99.90
12025;DHT22;6073;53.230;10.444;2024-01-07T14:35:29;-1.00;99.90
12025;DHT22;6073;53.230;10.444;2024-01-07T14:37:57;-1.10;99.90
12025;DHT22;6073;53.230;10.444;2024-01-07T14:40:23;-1.10;99.90
12025;DHT22;6073;53.230;10.444;2024-01-07T14:42:49;-1.20;99.90
12025;DHT22;6073;53.230;10.444;2024-01-07T14:45:14;-1.30;99.90
12025;DHT22;6073;53.230;10.444;2024-01-07T14:47:40;-1.40;99.90
12025;DHT22;6073;53.230;10.444;2024-01-07T14:50:06;-1.40;99.90
12025;DHT22;6073;53.230;10.444;2024-01-07T14:52:32;-1.40;99.90
12025;DHT22;6073;53.230;10.444;2024-01-07T14:54:57;-1.50;99.90
12025;DHT22;6073;53.230;10.444;2024-01-07T14:57:23;-1.50;99.90
12025;DHT22;6073;53.230;10.444;2024-01-07T14:59:49;-1.50;99.90
12025;DHT22;6073;53.230;10.444;2024-01-07T15:02:14;-1.60;99.90
12025;DHT22;6073;53.230;10.444;2024-01-07T15:04:40;-1.60;99.90
12025;DHT22;6073;53.230;10.444;2024-01-07T15:07:05;-1.50;99.90
12025;DHT22;6073;53.230;10.444;2024-01-07T15:09:31;-1.50;99.90
12025;DHT22;6073;53.230;10.444;2024-01-07T15:11:56;-1.60;99.90
12025;DHT22;6073;53.230;10.444;2024-01-07T15:14:23;-1.70;99.90
12025;DHT22;6073;53.230;10.444;2024-01-07T15:16:49;-1.70;99.90
12025;DHT22;6073;53.230;10.444;2024-01-07T15:19:19;-1.70;99.90
12025;DHT22;6073;53.230;10.444;2024-01-07T15:21:45;-1.70;99.90
12025;DHT22;6073;53.230;10.444;2024-01-07T15:24:10;-1.70;99.90
12025;DHT22;6073;53.230;10.444;2024-01-07T15:26:37;-1.80;99.90
12025;DHT22;6073;53.230;10.444;2024-01-07T15:29:03;-1.80;99.90
12025;DHT22;6073;53.230;10.444;2024-01-07T15:31:29;-1.80;99.90